Terminal Aerodrome Forecast
Issued by NWS

Home | Current Version | Previous Version | Text Only | Print | Product List | Glossary On
Versions: 1 2 3 4 5 6 7 8 9 10 11 12 13 14 15 16
000
FTAK31 PAJN 191700
TAFAJN
TAF
PAJN 191736Z 1918/2018 12015KT P6SM -RA FEW010 SCT035 OVC050
      TEMPO 1918/1922 12015G25KT 4SM RA BR SCT010 BKN023 OVC030
     FM192200 12015G25KT 6SM -RA BR BKN025 OVC035
     FM200000 11015KT P6SM -RA SCT015 OVC025
     FM200300 11010KT P6SM -RA OVC025
     FM200800 11015G25KT 4SM RA BR BKN007 OVC015
     FM201300 12012KT 5SM -RA BR OVC015=

USA.gov is the U.S. government's official web portal to all federal, state and local government web resources and services.